Time;durP1;ratioP1;P1;durP2;ratioP2;P2;SDS_P1;SDS_P2;PMS_P1;PMS_P2;Temp;Humidity;BMP_temperature;BMP_pressure;BME280_temperature;BME280_humidity;BME280_pressure;Samples;Min_cycle;Max_cycle;Signal;HPM_P1;HPM_P2
2023/06/19 00:01:26;;;;;;;0.10;0.10;;;;;;;;;;5064015;28;20447;-71
2023/06/19 00:03:52;;;;;;;0.10;0.10;;;;;;;;;;5069506;28;20241;-71
2023/06/19 00:06:19;;;;;;;0.00;0.00;;;;;;;;;;5063957;28;20206;-71
2023/06/19 00:08:45;;;;;;;0.00;0.00;;;;;;;;;;5069134;28;20308;-71
2023/06/19 00:11:11;;;;;;;0.00;0.00;;;;;;;;;;5063892;28;20276;-71
2023/06/19 00:13:39;;;;;;;0.00;0.00;;;;;;;;;;5069418;28;20269;-70
2023/06/19 00:16:05;;;;;;;0.00;0.00;;;;;;;;;;5063777;28;20205;-70
2023/06/19 00:18:39;;;;;;;0.00;0.00;;;;;;;;;;5069360;28;20345;-71
2023/06/19 00:21:07;;;;;;;0.10;0.10;;;;;;;;;;5064124;28;20195;-71
2023/06/19 00:23:33;;;;;;;0.05;0.05;;;;;;;;;;5069093;28;20240;-70
2023/06/19 00:26:01;;;;;;;0.10;0.10;;;;;;;;;;5063995;28;20276;-71
2023/06/19 00:28:27;;;;;;;0.00;0.00;;;;;;;;;;5068969;28;20436;-71
2023/06/19 00:30:55;;;;;;;0.00;0.00;;;;;;;;;;5063662;28;20278;-71
2023/06/19 00:33:21;;;;;;;0.00;0.00;;;;;;;;;;5068167;28;20252;-70
2023/06/19 00:35:48;;;;;;;0.00;0.00;;;;;;;;;;5064659;28;20403;-71
2023/06/19 00:38:14;;;;;;;0.00;0.00;;;;;;;;;;5067311;28;20498;-71
2023/06/19 00:40:41;;;;;;;0.00;0.00;;;;;;;;;;5065405;28;20394;-71
2023/06/19 00:43:07;;;;;;;0.00;0.00;;;;;;;;;;5066268;28;20482;-71
2023/06/19 00:45:33;;;;;;;0.10;0.10;;;;;;;;;;5065926;28;20242;-70
2023/06/19 00:48:01;;;;;;;0.00;0.00;;;;;;;;;;5065179;28;20254;-71
2023/06/19 00:50:29;;;;;;;0.00;0.00;;;;;;;;;;5066815;28;20203;-71
2023/06/19 00:52:55;;;;;;;0.00;0.00;;;;;;;;;;5064553;28;20501;-71
2023/06/19 00:55:22;;;;;;;0.03;0.03;;;;;;;;;;5068048;28;20244;-71
2023/06/19 00:57:49;;;;;;;0.08;0.08;;;;;;;;;;5063533;28;20284;-70
2023/06/19 01:00:16;;;;;;;0.00;0.00;;;;;;;;;;5068144;28;20227;-71
2023/06/19 01:02:42;;;;;;;0.00;0.00;;;;;;;;;;5062661;28;20258;-70
2023/06/19 01:05:10;;;;;;;0.03;0.03;;;;;;;;;;5069442;28;20506;-70
2023/06/19 01:07:41;;;;;;;0.00;0.00;;;;;;;;;;5062494;28;20265;-71
2023/06/19 01:10:09;;;;;;;0.00;0.00;;;;;;;;;;5073496;28;20215;-71
2023/06/19 01:12:38;;;;;;;0.05;0.05;;;;;;;;;;5066011;28;20386;-71
2023/06/19 01:15:05;;;;;;;0.00;0.00;;;;;;;;;;5073582;28;20292;-71
2023/06/19 01:17:31;;;;;;;0.00;0.00;;;;;;;;;;5065012;28;20242;-70
2023/06/19 01:19:58;;;;;;;0.00;0.00;;;;;;;;;;5074586;28;20275;-70
2023/06/19 01:22:29;;;;;;;0.00;0.00;;;;;;;;;;5064424;28;20312;-70
2023/06/19 01:24:56;;;;;;;0.00;0.00;;;;;;;;;;5074508;28;20267;-71
2023/06/19 01:27:22;;;;;;;0.00;0.00;;;;;;;;;;5063973;28;20523;-71
2023/06/19 01:29:49;;;;;;;0.10;0.10;;;;;;;;;;5075424;28;20454;-71
2023/06/19 01:32:19;;;;;;;0.00;0.00;;;;;;;;;;5062958;28;20513;-71
2023/06/19 01:34:47;;;;;;;0.00;0.00;;;;;;;;;;5075932;28;20234;-71
2023/06/19 01:37:13;;;;;;;0.08;0.08;;;;;;;;;;5062654;28;20254;-70
2023/06/19 01:39:42;;;;;;;0.10;0.10;;;;;;;;;;5076332;28;20266;-72
2023/06/19 01:42:11;;;;;;;0.00;0.00;;;;;;;;;;5061873;28;20252;-71
2023/06/19 01:44:37;;;;;;;0.00;0.00;;;;;;;;;;5076718;28;20238;-71
2023/06/19 01:47:08;;;;;;;0.00;0.00;;;;;;;;;;5061013;28;20261;-71
2023/06/19 01:49:34;;;;;;;0.00;0.00;;;;;;;;;;5076937;28;20230;-71
2023/06/19 01:52:01;;;;;;;0.00;0.00;;;;;;;;;;5060869;28;20241;-71
2023/06/19 01:54:27;;;;;;;0.00;0.00;;;;;;;;;;5077674;28;20457;-71
2023/06/19 01:56:55;;;;;;;0.10;0.10;;;;;;;;;;5059804;28;20581;-71
2023/06/19 01:59:22;;;;;;;0.10;0.10;;;;;;;;;;5078481;28;20287;-71
2023/06/19 02:01:48;;;;;;;0.00;0.00;;;;;;;;;;5059082;28;20491;-71
2023/06/19 02:04:15;;;;;;;0.00;0.00;;;;;;;;;;5079408;28;20227;-70
2023/06/19 02:06:41;;;;;;;0.00;0.00;;;;;;;;;;5057808;28;20212;-70
2023/06/19 02:09:08;;;;;;;0.20;0.20;;;;;;;;;;5079994;28;20255;-71
2023/06/19 02:11:34;;;;;;;0.00;0.00;;;;;;;;;;5057085;28;20205;-71
2023/06/19 02:14:02;;;;;;;0.20;0.20;;;;;;;;;;5080878;28;20275;-70
2023/06/19 02:16:29;;;;;;;0.00;0.00;;;;;;;;;;5056075;28;20207;-72
2023/06/19 02:18:55;;;;;;;0.00;0.00;;;;;;;;;;5080992;28;20215;-71
2023/06/19 02:21:21;;;;;;;0.00;0.00;;;;;;;;;;5066291;28;20238;-70
2023/06/19 02:23:48;;;;;;;0.13;0.13;;;;;;;;;;5071460;28;20242;-71
2023/06/19 02:26:14;;;;;;;0.10;0.10;;;;;;;;;;5065860;28;20278;-71
2023/06/19 02:28:41;;;;;;;1.45;1.35;;;;;;;;;;5071315;28;20238;-71
2023/06/19 02:31:08;;;;;;;0.05;0.05;;;;;;;;;;5065758;28;20205;-71
2023/06/19 02:33:35;;;;;;;0.10;0.10;;;;;;;;;;5071310;28;20246;-71
2023/06/19 02:36:01;;;;;;;0.00;0.00;;;;;;;;;;5065762;28;20242;-71
2023/06/19 02:38:29;;;;;;;0.00;0.00;;;;;;;;;;5070947;28;20248;-71
2023/06/19 02:40:57;;;;;;;0.03;0.03;;;;;;;;;;5065862;28;20265;-71
2023/06/19 02:43:23;;;;;;;0.20;0.20;;;;;;;;;;5070420;28;20242;-71
2023/06/19 02:45:50;;;;;;;0.00;0.00;;;;;;;;;;5066187;28;20255;-71
2023/06/19 02:48:17;;;;;;;0.40;0.40;;;;;;;;;;5069386;28;20249;-71
2023/06/19 02:50:44;;;;;;;0.00;0.00;;;;;;;;;;5066707;28;20233;-71
2023/06/19 02:53:11;;;;;;;0.10;0.10;;;;;;;;;;5068436;28;20312;-71
2023/06/19 02:55:37;;;;;;;0.03;0.03;;;;;;;;;;5067703;28;20439;-71
2023/06/19 02:58:03;;;;;;;0.08;0.08;;;;;;;;;;5067483;28;20322;-71
2023/06/19 03:00:30;;;;;;;0.00;0.00;;;;;;;;;;5068529;28;20392;-70
2023/06/19 03:02:56;;;;;;;0.10;0.10;;;;;;;;;;5066409;28;20272;-71
2023/06/19 03:05:26;;;;;;;0.00;0.00;;;;;;;;;;5069180;28;20204;-71
2023/06/19 03:07:53;;;;;;;0.00;0.00;;;;;;;;;;5065919;28;20258;-71
2023/06/19 03:10:19;;;;;;;0.10;0.10;;;;;;;;;;5069628;28;20416;-71
2023/06/19 03:12:46;;;;;;;0.03;0.03;;;;;;;;;;5064881;28;20476;-70
2023/06/19 03:15:12;;;;;;;0.10;0.10;;;;;;;;;;5070545;28;20207;-71
2023/06/19 03:17:38;;;;;;;0.00;0.00;;;;;;;;;;5063868;28;20350;-71
2023/06/19 03:20:06;;;;;;;0.00;0.00;;;;;;;;;;5071420;28;20448;-70
2023/06/19 03:22:33;;;;;;;0.05;0.05;;;;;;;;;;5062974;28;20446;-71
2023/06/19 03:25:00;;;;;;;0.10;0.10;;;;;;;;;;5072039;28;20289;-72
2023/06/19 03:27:26;;;;;;;0.20;0.20;;;;;;;;;;5062037;28;20267;-71
2023/06/19 03:29:53;;;;;;;0.00;0.00;;;;;;;;;;5071880;28;20226;-71
2023/06/19 03:32:21;;;;;;;0.10;0.10;;;;;;;;;;5060942;28;20304;-71
2023/06/19 03:34:48;;;;;;;0.00;0.00;;;;;;;;;;5073004;28;20207;-70
2023/06/19 03:37:14;;;;;;;0.00;0.00;;;;;;;;;;5060150;28;20258;-72
2023/06/19 03:39:42;;;;;;;0.00;0.00;;;;;;;;;;5074198;28;20203;-71
2023/06/19 03:42:09;;;;;;;0.00;0.00;;;;;;;;;;5059749;28;20476;-70
2023/06/19 03:44:35;;;;;;;0.00;0.00;;;;;;;;;;5074710;28;20278;-71
2023/06/19 03:47:01;;;;;;;0.00;0.00;;;;;;;;;;5058485;28;20248;-70
2023/06/19 03:49:28;;;;;;;0.10;0.10;;;;;;;;;;5075437;28;20455;-71
2023/06/19 03:51:54;;;;;;;0.17;0.17;;;;;;;;;;5057686;28;20469;-71
2023/06/19 03:54:21;;;;;;;0.03;0.03;;;;;;;;;;5076398;28;20397;-71
2023/06/19 03:56:49;;;;;;;0.03;0.03;;;;;;;;;;5056477;28;20262;-71
2023/06/19 03:59:15;;;;;;;0.05;0.05;;;;;;;;;;5076987;28;20426;-71
2023/06/19 04:01:41;;;;;;;0.00;0.00;;;;;;;;;;5066091;28;20290;-71
2023/06/19 04:04:08;;;;;;;0.10;0.10;;;;;;;;;;5067824;28;20241;-71
2023/06/19 04:06:34;;;;;;;0.10;0.10;;;;;;;;;;5064456;28;20245;-71
2023/06/19 04:09:01;;;;;;;0.00;0.00;;;;;;;;;;5068776;28;20246;-70
2023/06/19 04:11:27;;;;;;;0.10;0.10;;;;;;;;;;5064136;28;20499;-71
2023/06/19 04:13:55;;;;;;;0.00;0.00;;;;;;;;;;5069024;28;20455;-71
2023/06/19 04:16:21;;;;;;;0.10;0.10;;;;;;;;;;5063233;28;20305;-72
2023/06/19 04:18:48;;;;;;;0.00;0.00;;;;;;;;;;5070089;28;20427;-71
2023/06/19 04:21:14;;;;;;;0.00;0.00;;;;;;;;;;5062320;28;20275;-71
2023/06/19 04:23:41;;;;;;;0.00;0.00;;;;;;;;;;5070799;28;20212;-71
2023/06/19 04:26:07;;;;;;;0.10;0.10;;;;;;;;;;5061032;28;20246;-78
2023/06/19 04:28:33;;;;;;;0.10;0.10;;;;;;;;;;5071799;28;20214;-77
2023/06/19 04:31:01;;;;;;;0.10;0.10;;;;;;;;;;5060121;28;20253;-77
2023/06/19 04:33:28;;;;;;;0.10;0.10;;;;;;;;;;5072675;28;20211;-78
2023/06/19 04:35:54;;;;;;;0.00;0.00;;;;;;;;;;5059609;28;20308;-77
2023/06/19 04:38:23;;;;;;;0.10;0.10;;;;;;;;;;5073055;28;20467;-77
2023/06/19 04:40:50;;;;;;;0.10;0.10;;;;;;;;;;5058983;28;20465;-78
2023/06/19 04:43:16;;;;;;;0.05;0.05;;;;;;;;;;5073750;28;20278;-78
2023/06/19 04:45:42;;;;;;;0.03;0.03;;;;;;;;;;5057903;28;20300;-77
2023/06/19 04:48:11;;;;;;;0.08;0.08;;;;;;;;;;5074787;28;20277;-77
2023/06/19 04:50:37;;;;;;;0.10;0.10;;;;;;;;;;5056956;28;20268;-77
2023/06/19 04:53:03;;;;;;;0.10;0.10;;;;;;;;;;5075331;28;20458;-76
2023/06/19 04:55:30;;;;;;;0.08;0.08;;;;;;;;;;5055963;28;20253;-77
2023/06/19 04:57:56;;;;;;;0.00;0.00;;;;;;;;;;5076244;28;20374;-77
2023/06/19 05:00:23;;;;;;;0.03;0.03;;;;;;;;;;5055251;28;20293;-76
2023/06/19 05:02:49;;;;;;;0.10;0.10;;;;;;;;;;5076698;28;20235;-78
2023/06/19 05:05:17;;;;;;;0.10;0.10;;;;;;;;;;5054073;28;20207;-77
2023/06/19 05:07:45;;;;;;;0.10;0.10;;;;;;;;;;5077977;28;20446;-78
2023/06/19 05:10:11;;;;;;;0.00;0.00;;;;;;;;;;5053617;28;20464;-77
2023/06/19 05:12:38;;;;;;;0.08;0.08;;;;;;;;;;5078611;28;20439;-78
2023/06/19 05:15:04;;;;;;;0.00;0.00;;;;;;;;;;5063240;28;20282;-77
2023/06/19 05:17:30;;;;;;;0.03;0.03;;;;;;;;;;5068569;28;20239;-78
2023/06/19 05:19:57;;;;;;;0.10;0.10;;;;;;;;;;5063146;28;20230;-78
2023/06/19 05:22:26;;;;;;;0.10;0.10;;;;;;;;;;5068564;28;20259;-78
2023/06/19 05:24:52;;;;;;;0.75;0.75;;;;;;;;;;5063384;28;20213;-78
2023/06/19 05:27:19;;;;;;;0.10;0.10;;;;;;;;;;5068474;28;20257;-77
2023/06/19 05:29:45;;;;;;;0.10;0.10;;;;;;;;;;5063269;28;20232;-78
2023/06/19 05:32:12;;;;;;;0.08;0.08;;;;;;;;;;5068447;28;20486;-79
2023/06/19 05:34:38;;;;;;;0.15;0.15;;;;;;;;;;5063546;28;20438;-78
2023/06/19 05:37:05;;;;;;;0.00;0.00;;;;;;;;;;5068052;28;20280;-75
2023/06/19 05:39:32;;;;;;;0.00;0.00;;;;;;;;;;5063750;28;20212;-77
2023/06/19 05:41:59;;;;;;;0.10;0.10;;;;;;;;;;5067252;28;20468;-77
2023/06/19 05:44:25;;;;;;;0.00;0.00;;;;;;;;;;5064502;28;20392;-76
2023/06/19 05:46:52;;;;;;;0.10;0.10;;;;;;;;;;5066223;28;20244;-77
2023/06/19 05:49:18;;;;;;;0.00;0.00;;;;;;;;;;5065272;28;20207;-77
2023/06/19 05:51:44;;;;;;;0.20;0.20;;;;;;;;;;5065160;28;20267;-77
2023/06/19 05:54:11;;;;;;;0.00;0.00;;;;;;;;;;5067079;28;20236;-78
2023/06/19 05:56:39;;;;;;;0.08;0.08;;;;;;;;;;5067766;28;20307;-77
2023/06/19 05:59:05;;;;;;;0.00;0.00;;;;;;;;;;5070514;28;20234;-77
2023/06/19 06:01:32;;;;;;;0.28;0.28;;;;;;;;;;5066810;28;20569;-78
2023/06/19 06:03:58;;;;;;;0.90;0.90;;;;;;;;;;5071650;28;20207;-77
2023/06/19 06:06:25;;;;;;;0.03;0.03;;;;;;;;;;5066357;28;20241;-76
2023/06/19 06:08:52;;;;;;;0.00;0.00;;;;;;;;;;5071601;28;20278;-77
2023/06/19 06:11:18;;;;;;;0.10;0.10;;;;;;;;;;5065100;28;20249;-77
2023/06/19 06:13:46;;;;;;;0.45;0.45;;;;;;;;;;5072783;28;20208;-76
2023/06/19 06:16:12;;;;;;;0.10;0.10;;;;;;;;;;5064237;28;20247;-77
2023/06/19 06:18:39;;;;;;;0.30;0.30;;;;;;;;;;5073103;28;20454;-78
2023/06/19 06:21:05;;;;;;;0.00;0.00;;;;;;;;;;5063364;28;20554;-77
2023/06/19 06:23:31;;;;;;;0.10;0.10;;;;;;;;;;5074344;28;20207;-77
2023/06/19 06:26:02;;;;;;;0.10;0.10;;;;;;;;;;5062344;28;20242;-77
2023/06/19 06:28:28;;;;;;;0.20;0.20;;;;;;;;;;5074692;28;20479;-76
2023/06/19 06:30:56;;;;;;;4.47;1.95;;;;;;;;;;5061733;28;20299;-77
2023/06/19 06:33:22;;;;;;;0.10;0.10;;;;;;;;;;5075264;28;20221;-77
2023/06/19 06:35:49;;;;;;;0.10;0.10;;;;;;;;;;5060991;28;20242;-76
2023/06/19 06:38:15;;;;;;;0.00;0.00;;;;;;;;;;5076225;28;20237;-77
2023/06/19 06:40:43;;;;;;;0.00;0.00;;;;;;;;;;5059960;28;20241;-76
2023/06/19 06:43:09;;;;;;;0.00;0.00;;;;;;;;;;5076781;28;20208;-77
2023/06/19 06:45:37;;;;;;;0.10;0.10;;;;;;;;;;5059088;28;20438;-76
2023/06/19 06:48:05;;;;;;;0.00;0.00;;;;;;;;;;5077391;28;20543;-77
2023/06/19 06:50:32;;;;;;;0.00;0.00;;;;;;;;;;5058490;28;20289;-76
2023/06/19 06:52:58;;;;;;;0.10;0.10;;;;;;;;;;5077694;28;20220;-76
2023/06/19 06:55:25;;;;;;;0.10;0.10;;;;;;;;;;5057508;28;20467;-76
2023/06/19 06:57:51;;;;;;;0.00;0.00;;;;;;;;;;5078928;28;20536;-76
2023/06/19 07:00:18;;;;;;;0.10;0.10;;;;;;;;;;5056468;28;20229;-77
2023/06/19 07:02:47;;;;;;;0.10;0.10;;;;;;;;;;5079451;28;20210;-77
2023/06/19 07:05:15;;;;;;;0.10;0.10;;;;;;;;;;5055910;28;20207;-76
2023/06/19 07:07:41;;;;;;;0.00;0.00;;;;;;;;;;5079822;28;20211;-77
2023/06/19 07:10:08;;;;;;;0.10;0.10;;;;;;;;;;5062144;28;20249;-75
2023/06/19 07:12:35;;;;;;;0.00;0.00;;;;;;;;;;5080405;28;20275;-77
2023/06/19 07:15:01;;;;;;;0.00;0.00;;;;;;;;;;5065001;28;20241;-76
2023/06/19 07:17:27;;;;;;;0.10;0.10;;;;;;;;;;5070461;28;20240;-77
2023/06/19 07:19:54;;;;;;;0.10;0.10;;;;;;;;;;5064866;28;20237;-77
2023/06/19 07:22:22;;;;;;;0.00;0.00;;;;;;;;;;5070105;28;20242;-76
2023/06/19 07:24:48;;;;;;;0.10;0.10;;;;;;;;;;5064701;28;20280;-76
2023/06/19 07:27:14;;;;;;;0.00;0.00;;;;;;;;;;5070036;28;20310;-76
2023/06/19 07:29:41;;;;;;;0.10;0.10;;;;;;;;;;5064743;28;20280;-76
2023/06/19 07:32:07;;;;;;;0.10;0.10;;;;;;;;;;5069754;28;20295;-76
2023/06/19 07:34:34;;;;;;;0.10;0.10;;;;;;;;;;5065103;28;20276;-79
2023/06/19 07:37:00;;;;;;;0.08;0.08;;;;;;;;;;5068865;28;20241;-78
2023/06/19 07:39:28;;;;;;;0.08;0.08;;;;;;;;;;5065367;28;20273;-77
2023/06/19 07:41:54;;;;;;;0.20;0.20;;;;;;;;;;5068146;28;20242;-78
2023/06/19 07:44:21;;;;;;;0.00;0.00;;;;;;;;;;5066653;28;20387;-77
2023/06/19 07:46:47;;;;;;;0.00;0.00;;;;;;;;;;5067144;28;20463;-77
2023/06/19 07:49:13;;;;;;;0.00;0.00;;;;;;;;;;5067392;28;20277;-77
2023/06/19 07:51:40;;;;;;;0.05;0.05;;;;;;;;;;5066058;28;20267;-79
2023/06/19 07:54:06;;;;;;;0.00;0.00;;;;;;;;;;5069574;28;20230;-78
2023/06/19 07:56:34;;;;;;;0.00;0.00;;;;;;;;;;5065152;28;20495;-77
2023/06/19 07:59:00;;;;;;;0.08;0.08;;;;;;;;;;5068913;28;20272;-80
2023/06/19 08:01:26;;;;;;;0.10;0.10;;;;;;;;;;5064202;28;20265;-78
2023/06/19 08:03:53;;;;;;;0.10;0.10;;;;;;;;;;5069800;28;20447;-79
2023/06/19 08:06:19;;;;;;;0.10;0.10;;;;;;;;;;5062982;28;20239;-76
2023/06/19 08:08:46;;;;;;;0.03;0.03;;;;;;;;;;5070676;28;20242;-82
2023/06/19 08:11:12;;;;;;;0.00;0.00;;;;;;;;;;5062238;28;20625;-81
2023/06/19 08:13:40;;;;;;;0.52;0.52;;;;;;;;;;5071473;28;20207;-83
2023/06/19 08:16:07;;;;;;;0.10;0.10;;;;;;;;;;5061264;28;20241;-80
2023/06/19 08:18:33;;;;;;;0.00;0.00;;;;;;;;;;5071974;28;20459;-78
2023/06/19 08:20:59;;;;;;;0.30;0.30;;;;;;;;;;5060405;28;20257;-78
2023/06/19 08:23:26;;;;;;;0.00;0.00;;;;;;;;;;5072829;28;20204;-75
2023/06/19 08:25:52;;;;;;;0.00;0.00;;;;;;;;;;5059286;28;20265;-77
2023/06/19 08:28:19;;;;;;;0.10;0.10;;;;;;;;;;5073596;28;20515;-77
2023/06/19 08:30:46;;;;;;;0.00;0.00;;;;;;;;;;5058192;28;20243;-76
2023/06/19 08:33:13;;;;;;;0.10;0.10;;;;;;;;;;5074725;28;20211;-77
2023/06/19 08:35:40;;;;;;;0.00;0.00;;;;;;;;;;5057785;28;20444;-76
2023/06/19 08:38:06;;;;;;;0.00;0.00;;;;;;;;;;5075305;28;20396;-78
2023/06/19 08:40:33;;;;;;;0.00;0.00;;;;;;;;;;5056886;28;20450;-78
2023/06/19 08:43:00;;;;;;;0.03;0.03;;;;;;;;;;5075845;28;20228;-78
2023/06/19 08:45:27;;;;;;;0.00;0.00;;;;;;;;;;5055841;28;20570;-78
2023/06/19 08:47:59;;;;;;;0.00;0.00;;;;;;;;;;5076591;28;20204;-79
2023/06/19 08:50:26;;;;;;;0.00;0.00;;;;;;;;;;5055826;28;20235;-77
2023/06/19 08:52:52;;;;;;;0.03;0.03;;;;;;;;;;5076629;28;20212;-76
2023/06/19 08:55:19;;;;;;;0.10;0.10;;;;;;;;;;5054541;28;20231;-75
2023/06/19 08:57:45;;;;;;;0.20;0.20;;;;;;;;;;5077825;28;20573;-78
2023/06/19 09:00:12;;;;;;;0.00;0.00;;;;;;;;;;5053934;28;20262;-78
2023/06/19 09:02:41;;;;;;;0.10;0.10;;;;;;;;;;5078719;28;20200;-78
2023/06/19 09:05:16;;;;;;;0.00;0.00;;;;;;;;;;5060244;28;20276;-77
2023/06/19 09:07:42;;;;;;;0.00;0.00;;;;;;;;;;5063737;28;20279;-78
2023/06/19 09:10:19;;;;;;;0.10;0.10;;;;;;;;;;5055619;28;20207;-77
2023/06/19 09:12:45;;;;;;;0.00;0.00;;;;;;;;;;5063569;28;20455;-75
2023/06/19 09:15:12;;;;;;;0.10;0.10;;;;;;;;;;5053972;28;20275;-77
2023/06/19 09:17:39;;;;;;;0.00;0.00;;;;;;;;;;5078450;28;20204;-75
2023/06/19 09:20:06;;;;;;;0.00;0.00;;;;;;;;;;5063626;28;20275;-77
2023/06/19 09:22:34;;;;;;;0.10;0.10;;;;;;;;;;5068709;28;20247;-77
2023/06/19 09:25:01;;;;;;;0.00;0.00;;;;;;;;;;5063562;28;20452;-75
2023/06/19 09:27:32;;;;;;;0.00;0.00;;;;;;;;;;5068563;28;20243;-77
2023/06/19 09:29:59;;;;;;;0.10;0.10;;;;;;;;;;5066317;28;20480;-79
2023/06/19 09:32:26;;;;;;;0.52;0.52;;;;;;;;;;5072334;28;20281;-77
2023/06/19 09:34:53;;;;;;;0.10;0.10;;;;;;;;;;5067264;28;20204;-75
2023/06/19 09:37:22;;;;;;;0.10;0.10;;;;;;;;;;5072297;28;20483;-77
2023/06/19 09:39:51;;;;;;;0.00;0.00;;;;;;;;;;5067240;28;20276;-77
2023/06/19 09:42:18;;;;;;;0.05;0.05;;;;;;;;;;5072141;28;20231;-75
2023/06/19 09:44:47;;;;;;;0.00;0.00;;;;;;;;;;5067124;28;20402;-75
2023/06/19 09:47:18;;;;;;;0.10;0.10;;;;;;;;;;5072031;28;20249;-76
2023/06/19 09:49:47;;;;;;;0.08;0.08;;;;;;;;;;5066749;28;20200;-76
2023/06/19 09:52:13;;;;;;;0.30;0.30;;;;;;;;;;5071884;28;20318;-74
2023/06/19 09:54:40;;;;;;;0.10;0.10;;;;;;;;;;5066912;28;20211;-74
2023/06/19 09:57:09;;;;;;;0.95;0.95;;;;;;;;;;5071928;28;20244;-74
2023/06/19 09:59:35;;;;;;;0.28;0.28;;;;;;;;;;5066399;28;20228;-74
2023/06/19 10:02:05;;;;;;;1.10;1.00;;;;;;;;;;5070961;28;20515;-78
2023/06/19 10:04:45;;;;;;;0.10;0.10;;;;;;;;;;5067172;28;20554;-77
2023/06/19 10:07:16;;;;;;;0.00;0.00;;;;;;;;;;5071810;28;20247;-77
2023/06/19 10:09:43;;;;;;;0.00;0.00;;;;;;;;;;5066387;28;20264;-78
2023/06/19 10:12:14;;;;;;;0.30;0.30;;;;;;;;;;5071166;28;20630;-78
2023/06/19 10:14:47;;;;;;;0.00;0.00;;;;;;;;;;5066200;28;20193;-77
2023/06/19 10:17:13;;;;;;;0.00;0.00;;;;;;;;;;5071642;28;20499;-76
2023/06/19 10:19:49;;;;;;;0.00;0.00;;;;;;;;;;5066311;28;20204;-77
2023/06/19 10:22:20;;;;;;;0.00;0.00;;;;;;;;;;5071430;28;20314;-76
2023/06/19 10:24:49;;;;;;;0.00;0.00;;;;;;;;;;5066032;28;20222;-76
2023/06/19 10:27:21;;;;;;;0.08;0.08;;;;;;;;;;5071284;28;20420;-77
2023/06/19 10:29:52;;;;;;;0.00;0.00;;;;;;;;;;5066229;28;20236;-77
2023/06/19 10:32:19;;;;;;;0.10;0.10;;;;;;;;;;5071362;28;20251;-77
2023/06/19 10:34:46;;;;;;;0.32;0.32;;;;;;;;;;5065720;28;20271;-78
2023/06/19 10:37:13;;;;;;;0.00;0.00;;;;;;;;;;5071264;28;20240;-77
2023/06/19 10:39:39;;;;;;;0.47;0.45;;;;;;;;;;5065414;28;20208;-78
2023/06/19 10:42:07;;;;;;;0.00;0.00;;;;;;;;;;5070944;28;20479;-78
2023/06/19 10:44:34;;;;;;;0.00;0.00;;;;;;;;;;5065865;28;20283;-78
2023/06/19 10:47:01;;;;;;;0.15;0.15;;;;;;;;;;5069968;28;20245;-78
2023/06/19 10:49:28;;;;;;;0.00;0.00;;;;;;;;;;5066575;28;20204;-77
2023/06/19 10:51:58;;;;;;;0.10;0.10;;;;;;;;;;5068996;28;20463;-78
2023/06/19 10:54:25;;;;;;;0.00;0.00;;;;;;;;;;5067042;28;20211;-77
2023/06/19 10:56:51;;;;;;;0.00;0.00;;;;;;;;;;5068746;28;20527;-78
2023/06/19 10:59:18;;;;;;;0.38;0.38;;;;;;;;;;5067862;28;20406;-76
2023/06/19 11:01:46;;;;;;;0.00;0.00;;;;;;;;;;5067309;28;20624;-77
2023/06/19 11:04:14;;;;;;;0.00;0.00;;;;;;;;;;5068459;28;20288;-73
2023/06/19 11:06:41;;;;;;;0.05;0.05;;;;;;;;;;5066667;28;20239;-71
2023/06/19 11:09:07;;;;;;;0.80;0.63;;;;;;;;;;5069209;28;20204;-72
2023/06/19 11:11:37;;;;;;;0.00;0.00;;;;;;;;;;5065329;28;20235;-72
2023/06/19 11:14:04;;;;;;;0.32;0.32;;;;;;;;;;5069888;28;20210;-72
2023/06/19 11:16:31;;;;;;;0.00;0.00;;;;;;;;;;5065369;28;20531;-72
2023/06/19 11:18:58;;;;;;;0.00;0.00;;;;;;;;;;5070247;28;20248;-72
2023/06/19 11:21:30;;;;;;;0.00;0.00;;;;;;;;;;5064814;28;20314;-72
2023/06/19 11:23:58;;;;;;;0.00;0.00;;;;;;;;;;5070010;28;20212;-71
2023/06/19 11:26:25;;;;;;;0.03;0.03;;;;;;;;;;5064662;28;20270;-72
2023/06/19 11:28:52;;;;;;;0.00;0.00;;;;;;;;;;5070002;28;20275;-71
2023/06/19 11:31:25;;;;;;;0.00;0.00;;;;;;;;;;5063318;28;20582;-71
2023/06/19 11:33:56;;;;;;;0.20;0.20;;;;;;;;;;5070761;28;20495;-71
2023/06/19 11:36:24;;;;;;;0.00;0.00;;;;;;;;;;5064205;28;20262;-71
2023/06/19 11:38:51;;;;;;;0.00;0.00;;;;;;;;;;5070422;28;20211;-71
2023/06/19 11:41:26;;;;;;;0.00;0.00;;;;;;;;;;5063497;28;20577;-71
2023/06/19 11:43:58;;;;;;;0.00;0.00;;;;;;;;;;5070282;28;20204;-71
2023/06/19 11:46:29;;;;;;;0.00;0.00;;;;;;;;;;5063976;28;20306;-70
2023/06/19 11:48:56;;;;;;;1.33;1.25;;;;;;;;;;5069744;28;20208;-71
2023/06/19 11:51:24;;;;;;;0.00;0.00;;;;;;;;;;5063055;28;20259;-71
2023/06/19 11:53:52;;;;;;;0.00;0.00;;;;;;;;;;5070262;28;20207;-71
2023/06/19 11:56:18;;;;;;;0.00;0.00;;;;;;;;;;5063066;28;20239;-71
2023/06/19 11:58:45;;;;;;;0.05;0.05;;;;;;;;;;5070762;28;20422;-71
2023/06/19 12:01:11;;;;;;;0.00;0.00;;;;;;;;;;5061762;28;20494;-71
2023/06/19 12:03:38;;;;;;;0.00;0.00;;;;;;;;;;5072208;28;20516;-71
2023/06/19 12:06:04;;;;;;;0.00;0.00;;;;;;;;;;5061267;28;20247;-71
2023/06/19 12:08:33;;;;;;;0.00;0.00;;;;;;;;;;5072555;28;20218;-72
2023/06/19 12:10:59;;;;;;;0.00;0.00;;;;;;;;;;5060315;28;20246;-71
2023/06/19 12:13:26;;;;;;;0.35;0.35;;;;;;;;;;5072965;28;20224;-71
2023/06/19 12:15:52;;;;;;;0.00;0.00;;;;;;;;;;5059545;28;20303;-71
2023/06/19 12:18:19;;;;;;;0.00;0.00;;;;;;;;;;5073883;28;20404;-71
2023/06/19 12:20:45;;;;;;;0.73;0.73;;;;;;;;;;5058351;28;20247;-71
2023/06/19 12:23:11;;;;;;;0.00;0.00;;;;;;;;;;5074562;28;20234;-71
2023/06/19 12:25:39;;;;;;;0.00;0.00;;;;;;;;;;5057427;28;20637;-70
2023/06/19 12:28:08;;;;;;;0.40;0.40;;;;;;;;;;5075601;28;20390;-71
2023/06/19 12:30:34;;;;;;;0.00;0.00;;;;;;;;;;5057050;28;20257;-73
2023/06/19 12:33:00;;;;;;;0.00;0.00;;;;;;;;;;5075665;28;20227;-71
2023/06/19 12:35:27;;;;;;;0.00;0.00;;;;;;;;;;5056052;28;20242;-71
2023/06/19 12:37:54;;;;;;;0.00;0.00;;;;;;;;;;5076793;28;20203;-72
2023/06/19 12:40:21;;;;;;;0.00;0.00;;;;;;;;;;5054986;28;20250;-72
2023/06/19 12:42:50;;;;;;;0.10;0.10;;;;;;;;;;5077560;28;20383;-71
2023/06/19 12:45:16;;;;;;;0.05;0.05;;;;;;;;;;5054309;28;20204;-71
2023/06/19 12:47:43;;;;;;;0.00;0.00;;;;;;;;;;5077837;28;20287;-71
2023/06/19 12:50:11;;;;;;;0.15;0.15;;;;;;;;;;5055573;28;20204;-72
2023/06/19 12:52:37;;;;;;;0.00;0.00;;;;;;;;;;5078755;28;20239;-71
2023/06/19 12:55:04;;;;;;;0.00;0.00;;;;;;;;;;5063712;28;20204;-71
2023/06/19 12:57:30;;;;;;;0.00;0.00;;;;;;;;;;5068864;28;20469;-72
2023/06/19 12:59:58;;;;;;;0.00;0.00;;;;;;;;;;5063567;28;20475;-72
2023/06/19 13:02:25;;;;;;;0.00;0.00;;;;;;;;;;5069069;28;20242;-71
2023/06/19 13:04:51;;;;;;;0.00;0.00;;;;;;;;;;5067790;28;20262;-72
2023/06/19 13:07:17;;;;;;;0.00;0.00;;;;;;;;;;5072766;28;20254;-71
2023/06/19 13:09:44;;;;;;;0.00;0.00;;;;;;;;;;5067441;28;20275;-71
2023/06/19 13:12:10;;;;;;;0.10;0.10;;;;;;;;;;5072666;28;20255;-71
2023/06/19 13:14:37;;;;;;;0.00;0.00;;;;;;;;;;5067853;28;20442;-71
2023/06/19 13:17:08;;;;;;;0.00;0.00;;;;;;;;;;5072041;28;20302;-72
2023/06/19 13:19:35;;;;;;;0.00;0.00;;;;;;;;;;5067844;28;20236;-71
2023/06/19 13:22:01;;;;;;;0.00;0.00;;;;;;;;;;5071528;28;20235;-71
2023/06/19 13:24:28;;;;;;;0.00;0.00;;;;;;;;;;5067849;28;20226;-71
2023/06/19 13:26:54;;;;;;;1.20;1.20;;;;;;;;;;5070627;28;20234;-72
2023/06/19 13:29:21;;;;;;;0.00;0.00;;;;;;;;;;5069197;28;20204;-71
2023/06/19 13:31:47;;;;;;;0.25;0.25;;;;;;;;;;5069460;28;20239;-71
2023/06/19 13:34:15;;;;;;;0.10;0.10;;;;;;;;;;5070000;28;20450;-71
2023/06/19 13:36:42;;;;;;;0.00;0.00;;;;;;;;;;5068940;28;20320;-71
2023/06/19 13:39:08;;;;;;;0.00;0.00;;;;;;;;;;5070214;28;20504;-72
2023/06/19 13:41:35;;;;;;;0.00;0.00;;;;;;;;;;5067732;28;20275;-71
2023/06/19 13:44:01;;;;;;;0.00;0.00;;;;;;;;;;5071426;28;20435;-71
2023/06/19 13:46:28;;;;;;;0.00;0.00;;;;;;;;;;5066839;28;20241;-71
2023/06/19 13:48:54;;;;;;;0.00;0.00;;;;;;;;;;5071765;28;20231;-71
2023/06/19 13:51:22;;;;;;;0.20;0.20;;;;;;;;;;5065828;28;20246;-71
2023/06/19 13:53:49;;;;;;;2.30;2.25;;;;;;;;;;5072642;28;20260;-72
2023/06/19 13:56:15;;;;;;;0.00;0.00;;;;;;;;;;5064832;28;20239;-71
2023/06/19 13:58:42;;;;;;;0.00;0.00;;;;;;;;;;5073693;28;20386;-70
2023/06/19 14:01:08;;;;;;;0.00;0.00;;;;;;;;;;5064176;28;20310;-70
2023/06/19 14:03:36;;;;;;;0.00;0.00;;;;;;;;;;5074518;28;20203;-70
2023/06/19 14:06:03;;;;;;;0.10;0.10;;;;;;;;;;5063133;28;20239;-70
2023/06/19 14:08:30;;;;;;;0.00;0.00;;;;;;;;;;5074980;28;20244;-71
2023/06/19 14:10:57;;;;;;;0.00;0.00;;;;;;;;;;5062347;28;20259;-70
2023/06/19 14:13:23;;;;;;;0.15;0.15;;;;;;;;;;5075599;28;20374;-71
2023/06/19 14:15:50;;;;;;;0.10;0.10;;;;;;;;;;5060757;28;20421;-71
2023/06/19 14:18:17;;;;;;;0.10;0.10;;;;;;;;;;5076105;28;20204;-71
2023/06/19 14:20:43;;;;;;;0.00;0.00;;;;;;;;;;5060575;28;20314;-70
2023/06/19 14:23:10;;;;;;;0.00;0.00;;;;;;;;;;5077275;28;20270;-70
2023/06/19 14:25:37;;;;;;;0.00;0.00;;;;;;;;;;5059842;28;20266;-70
2023/06/19 14:28:04;;;;;;;0.00;0.00;;;;;;;;;;5077864;28;20239;-70
2023/06/19 14:30:30;;;;;;;0.00;0.00;;;;;;;;;;5059000;28;20307;-71
2023/06/19 14:32:57;;;;;;;0.00;0.00;;;;;;;;;;5078716;28;20295;-70
2023/06/19 14:35:23;;;;;;;0.00;0.00;;;;;;;;;;5057481;28;20204;-69
2023/06/19 14:37:49;;;;;;;0.00;0.00;;;;;;;;;;5079453;28;20204;-71
2023/06/19 14:40:16;;;;;;;0.00;0.00;;;;;;;;;;5057030;28;20239;-71
2023/06/19 14:42:44;;;;;;;1.00;0.98;;;;;;;;;;5080276;28;20394;-70